DAL1875 KLAX-MMSD
Flight info
| Callsign | DAL1875 |
|---|---|
| Flight time | 2h 1m |
| Altitude | 35000 |
| Route | PNDAH2 OTAYY DCT TIJ UT6 IMUSU UT25 LTO DCT ENEKO ENEKO1A |
| Aircraft | A321/M-SDE3FGHIRWY/LB1 |
Departure
| Time | 2026-05-06 19:39 |
|---|---|
| Airport | Los Angeles International Airport (KLAX) |
Arrival
| Time | 2026-05-06 21:41 |
|---|---|
| Airport | Los Cabos International Airport (MMSD) |
| Time | Latitude | Longitude | Altitude | Speed | Heading |
|---|---|---|---|---|---|
| 2026-05-06 19:20 | 33.94641 | -118.40635 | 6 ft | 0 kts | 286° |
| 2026-05-06 19:29 | 33.94638 | -118.40622 | 126 ft | 3 kts | 286° |
| 2026-05-06 19:29 | 33.94631 | -118.40601 | 121 ft | 3 kts | 324° |
| 2026-05-06 19:30 | 33.94620 | -118.40594 | 122 ft | 0 kts | 354° |
| 2026-05-06 19:35 | 33.94634 | -118.40596 | 122 ft | 5 kts | 356° |
| 2026-05-06 19:35 | 33.94685 | -118.40595 | 125 ft | 10 kts | 5° |
| 2026-05-06 19:35 | 33.94750 | -118.40583 | 123 ft | 9 kts | 2° |
| 2026-05-06 19:36 | 33.94820 | -118.40598 | 122 ft | 11 kts | 349° |
| 2026-05-06 19:36 | 33.94871 | -118.40541 | 125 ft | 12 kts | 80° |
| 2026-05-06 19:36 | 33.94882 | -118.40437 | 125 ft | 13 kts | 83° |
| 2026-05-06 19:36 | 33.94893 | -118.40327 | 125 ft | 14 kts | 83° |
| 2026-05-06 19:37 | 33.94904 | -118.40223 | 122 ft | 11 kts | 83° |
| 2026-05-06 19:37 | 33.94915 | -118.40119 | 123 ft | 15 kts | 83° |
| 2026-05-06 19:37 | 33.94929 | -118.39982 | 125 ft | 16 kts | 79° |
| 2026-05-06 19:37 | 33.94971 | -118.39918 | 123 ft | 14 kts | 21° |
| 2026-05-06 19:38 | 33.95039 | -118.39973 | 123 ft | 9 kts | 268° |
| 2026-05-06 19:38 | 33.95038 | -118.39983 | 125 ft | 0 kts | 265° |
| 2026-05-06 19:38 | 33.95035 | -118.40028 | 124 ft | 23 kts | 265° |
| 2026-05-06 19:39 | 33.94984 | -118.40509 | 126 ft | 90 kts | 263° |
| 2026-05-06 19:39 | 33.94885 | -118.41471 | 126 ft | 139 kts | 263° |
| 2026-05-06 19:39 | 33.94749 | -118.42767 | 284 ft | 163 kts | 262° |
| 2026-05-06 19:39 | 33.94601 | -118.44110 | 918 ft | 162 kts | 261° |
| 2026-05-06 19:40 | 33.94467 | -118.45460 | 1580 ft | 163 kts | 263° |
| 2026-05-06 19:40 | 33.94343 | -118.46845 | 1994 ft | 173 kts | 265° |
| 2026-05-06 19:40 | 33.94273 | -118.48374 | 2156 ft | 193 kts | 268° |
| 2026-05-06 19:40 | 33.94225 | -118.50073 | 2271 ft | 214 kts | 269° |
| 2026-05-06 19:41 | 33.94148 | -118.51970 | 2443 ft | 239 kts | 266° |
| 2026-05-06 19:41 | 33.94004 | -118.54027 | 3005 ft | 251 kts | 265° |
| 2026-05-06 19:41 | 33.93835 | -118.56159 | 3674 ft | 260 kts | 265° |
| 2026-05-06 19:41 | 33.93657 | -118.58350 | 4387 ft | 265 kts | 267° |
| 2026-05-06 19:42 | 33.93438 | -118.60581 | 4901 ft | 271 kts | 258° |
| 2026-05-06 19:42 | 33.92971 | -118.61980 | 5180 ft | 275 kts | 239° |
| 2026-05-06 19:42 | 33.91602 | -118.63611 | 5211 ft | 282 kts | 208° |
| 2026-05-06 19:42 | 33.89687 | -118.64137 | 5509 ft | 290 kts | 178° |
| 2026-05-06 19:43 | 33.87682 | -118.63971 | 6364 ft | 288 kts | 175° |
| 2026-05-06 19:43 | 33.85666 | -118.63793 | 7068 ft | 293 kts | 171° |
| 2026-05-06 19:43 | 33.83694 | -118.63186 | 7767 ft | 293 kts | 156° |
| 2026-05-06 19:43 | 33.81911 | -118.62007 | 8501 ft | 293 kts | 143° |
| 2026-05-06 19:44 | 33.80221 | -118.60621 | 9239 ft | 295 kts | 143° |
| 2026-05-06 19:44 | 33.78519 | -118.59226 | 9968 ft | 297 kts | 142° |
| 2026-05-06 19:44 | 33.76774 | -118.57798 | 10327 ft | 314 kts | 143° |
| 2026-05-06 19:44 | 33.74905 | -118.56270 | 10441 ft | 336 kts | 143° |
| 2026-05-06 19:45 | 33.72917 | -118.54652 | 10728 ft | 351 kts | 143° |
| 2026-05-06 19:45 | 33.70954 | -118.52882 | 11277 ft | 355 kts | 135° |
| 2026-05-06 19:45 | 33.69279 | -118.50666 | 11886 ft | 356 kts | 123° |
| 2026-05-06 19:45 | 33.68008 | -118.48124 | 12507 ft | 356 kts | 114° |
| 2026-05-06 19:46 | 33.66873 | -118.45460 | 13128 ft | 360 kts | 114° |
| 2026-05-06 19:46 | 33.65726 | -118.42771 | 13760 ft | 364 kts | 114° |
| 2026-05-06 19:46 | 33.64563 | -118.40060 | 14328 ft | 367 kts | 114° |
| 2026-05-06 19:46 | 33.63385 | -118.37326 | 14910 ft | 370 kts | 114° |
| 2026-05-06 19:47 | 33.62198 | -118.34574 | 15497 ft | 372 kts | 114° |
| 2026-05-06 19:47 | 33.61005 | -118.31809 | 16079 ft | 375 kts | 114° |
| 2026-05-06 19:47 | 33.59802 | -118.29024 | 16651 ft | 377 kts | 114° |
| 2026-05-06 19:47 | 33.58590 | -118.26221 | 17215 ft | 380 kts | 114° |
| 2026-05-06 19:48 | 33.57372 | -118.23403 | 17771 ft | 382 kts | 114° |
| 2026-05-06 19:48 | 33.56146 | -118.20567 | 18331 ft | 385 kts | 114° |
| 2026-05-06 19:48 | 33.54909 | -118.17711 | 18804 ft | 387 kts | 114° |
| 2026-05-06 19:48 | 33.53662 | -118.14836 | 19252 ft | 390 kts | 114° |
| 2026-05-06 19:49 | 33.52409 | -118.11940 | 19683 ft | 393 kts | 114° |
| 2026-05-06 19:49 | 33.51153 | -118.09023 | 20125 ft | 395 kts | 114° |
| 2026-05-06 19:49 | 33.49892 | -118.06085 | 20567 ft | 398 kts | 114° |
| 2026-05-06 19:49 | 33.48641 | -118.03172 | 21037 ft | 399 kts | 114° |
| 2026-05-06 19:50 | 33.47261 | -118.00268 | 21484 ft | 405 kts | 121° |
| 2026-05-06 19:50 | 33.45471 | -117.97634 | 21902 ft | 412 kts | 131° |
| 2026-05-06 19:50 | 33.43337 | -117.95306 | 22320 ft | 417 kts | 135° |
| 2026-05-06 19:50 | 33.41157 | -117.93002 | 22756 ft | 420 kts | 135° |
| 2026-05-06 19:51 | 33.38960 | -117.90673 | 23119 ft | 423 kts | 135° |
| 2026-05-06 19:51 | 33.36750 | -117.88327 | 23511 ft | 426 kts | 134° |
| 2026-05-06 19:51 | 33.34512 | -117.85950 | 23870 ft | 429 kts | 134° |
| 2026-05-06 19:51 | 33.32275 | -117.83572 | 24199 ft | 432 kts | 134° |
| 2026-05-06 19:52 | 33.30025 | -117.81187 | 24546 ft | 434 kts | 134° |
| 2026-05-06 19:52 | 33.27762 | -117.78795 | 24892 ft | 436 kts | 134° |
| 2026-05-06 19:52 | 33.25484 | -117.76388 | 25236 ft | 438 kts | 134° |
| 2026-05-06 19:52 | 33.23198 | -117.73971 | 25578 ft | 440 kts | 134° |
| 2026-05-06 19:53 | 33.20904 | -117.71546 | 25898 ft | 442 kts | 134° |
| 2026-05-06 19:53 | 33.18593 | -117.69112 | 26219 ft | 444 kts | 134° |
| 2026-05-06 19:53 | 33.16271 | -117.66667 | 26546 ft | 446 kts | 134° |
| 2026-05-06 19:53 | 33.13958 | -117.64191 | 26870 ft | 447 kts | 133° |
| 2026-05-06 19:54 | 33.11672 | -117.61668 | 27182 ft | 449 kts | 132° |
| 2026-05-06 19:54 | 33.09398 | -117.59112 | 27506 ft | 450 kts | 132° |
| 2026-05-06 19:54 | 33.07121 | -117.56538 | 27823 ft | 452 kts | 131° |
| 2026-05-06 19:54 | 33.04834 | -117.53955 | 28128 ft | 454 kts | 132° |
| 2026-05-06 19:55 | 33.02529 | -117.51368 | 28416 ft | 456 kts | 132° |
| 2026-05-06 19:55 | 33.00207 | -117.48776 | 28663 ft | 459 kts | 132° |
| 2026-05-06 19:55 | 32.97865 | -117.46174 | 28963 ft | 461 kts | 132° |
| 2026-05-06 19:55 | 32.95512 | -117.43572 | 29257 ft | 463 kts | 132° |
| 2026-05-06 19:56 | 32.93140 | -117.40951 | 29531 ft | 464 kts | 132° |
| 2026-05-06 19:56 | 32.90767 | -117.38332 | 29827 ft | 466 kts | 132° |
| 2026-05-06 19:56 | 32.88385 | -117.35706 | 30104 ft | 467 kts | 132° |
| 2026-05-06 19:56 | 32.85997 | -117.33071 | 30333 ft | 469 kts | 132° |
| 2026-05-06 19:57 | 32.83603 | -117.30432 | 30607 ft | 469 kts | 131° |
| 2026-05-06 19:57 | 32.81213 | -117.27800 | 30958 ft | 468 kts | 131° |
| 2026-05-06 19:57 | 32.78831 | -117.25175 | 31304 ft | 466 kts | 131° |
| 2026-05-06 19:57 | 32.76489 | -117.22596 | 31649 ft | 465 kts | 131° |
| 2026-05-06 19:58 | 32.74114 | -117.19985 | 31993 ft | 464 kts | 131° |
| 2026-05-06 19:58 | 32.71747 | -117.17388 | 32354 ft | 463 kts | 131° |
| 2026-05-06 19:58 | 32.69391 | -117.14802 | 32727 ft | 461 kts | 130° |
| 2026-05-06 19:58 | 32.67040 | -117.12216 | 33079 ft | 459 kts | 129° |
| 2026-05-06 19:59 | 32.64867 | -117.09481 | 33408 ft | 454 kts | 125° |
| 2026-05-06 19:59 | 32.62752 | -117.06691 | 33696 ft | 455 kts | 125° |
| 2026-05-06 19:59 | 32.60638 | -117.03907 | 33984 ft | 454 kts | 125° |
| 2026-05-06 19:59 | 32.58518 | -117.01128 | 34258 ft | 454 kts | 125° |
| 2026-05-06 20:00 | 32.56395 | -116.98352 | 34506 ft | 454 kts | 125° |
| 2026-05-06 20:00 | 32.54245 | -116.95603 | 34774 ft | 457 kts | 129° |
| 2026-05-06 20:00 | 32.51832 | -116.93118 | 35005 ft | 462 kts | 135° |
| 2026-05-06 20:00 | 32.49337 | -116.90718 | 35123 ft | 462 kts | 135° |
| 2026-05-06 20:01 | 32.44370 | -116.85957 | 35169 ft | 458 kts | 135° |
| 2026-05-06 20:01 | 32.39423 | -116.81207 | 35152 ft | 458 kts | 135° |
| 2026-05-06 20:02 | 32.34477 | -116.76466 | 35143 ft | 458 kts | 135° |
| 2026-05-06 20:02 | 32.29529 | -116.71731 | 35138 ft | 457 kts | 135° |
| 2026-05-06 20:03 | 32.24577 | -116.67003 | 35143 ft | 458 kts | 136° |
| 2026-05-06 20:03 | 32.19619 | -116.62264 | 35126 ft | 459 kts | 136° |
| 2026-05-06 20:04 | 32.14651 | -116.57523 | 35116 ft | 459 kts | 136° |
| 2026-05-06 20:04 | 32.09750 | -116.52700 | 35138 ft | 458 kts | 135° |
| 2026-05-06 20:05 | 32.04903 | -116.47809 | 35134 ft | 459 kts | 135° |
| 2026-05-06 20:05 | 32.00041 | -116.42935 | 35129 ft | 459 kts | 135° |
| 2026-05-06 20:06 | 31.95151 | -116.38085 | 35118 ft | 460 kts | 136° |
| 2026-05-06 20:06 | 31.90256 | -116.33237 | 35117 ft | 460 kts | 136° |
| 2026-05-06 20:07 | 31.85353 | -116.28390 | 35125 ft | 461 kts | 136° |
| 2026-05-06 20:07 | 31.80443 | -116.23541 | 35131 ft | 461 kts | 137° |
| 2026-05-06 20:08 | 31.75528 | -116.18698 | 35119 ft | 461 kts | 137° |
| 2026-05-06 20:08 | 31.70531 | -116.13966 | 35113 ft | 462 kts | 140° |
| 2026-05-06 20:09 | 31.65381 | -116.09450 | 35113 ft | 462 kts | 141° |
| 2026-05-06 20:09 | 31.60242 | -116.04987 | 35103 ft | 463 kts | 141° |
| 2026-05-06 20:10 | 31.55058 | -116.00411 | 35096 ft | 464 kts | 141° |
| 2026-05-06 20:10 | 31.49919 | -115.95834 | 35099 ft | 464 kts | 141° |
| 2026-05-06 20:11 | 31.44820 | -115.91286 | 35112 ft | 464 kts | 143° |
| 2026-05-06 20:11 | 31.39676 | -115.86723 | 35111 ft | 464 kts | 143° |
| 2026-05-06 20:12 | 31.34526 | -115.82185 | 35108 ft | 464 kts | 143° |
| 2026-05-06 20:12 | 31.29375 | -115.77641 | 35105 ft | 464 kts | 143° |
| 2026-05-06 20:13 | 31.24221 | -115.73100 | 35120 ft | 464 kts | 143° |
| 2026-05-06 20:13 | 31.19067 | -115.68569 | 35104 ft | 464 kts | 144° |
| 2026-05-06 20:14 | 31.13911 | -115.64035 | 35107 ft | 464 kts | 144° |
| 2026-05-06 20:14 | 31.08757 | -115.59504 | 35128 ft | 463 kts | 145° |
| 2026-05-06 20:15 | 31.03618 | -115.55000 | 35121 ft | 461 kts | 145° |
| 2026-05-06 20:15 | 30.98492 | -115.50510 | 35115 ft | 461 kts | 147° |
| 2026-05-06 20:16 | 30.93365 | -115.46031 | 35109 ft | 460 kts | 147° |
| 2026-05-06 20:16 | 30.88235 | -115.41570 | 35108 ft | 460 kts | 147° |
| 2026-05-06 20:17 | 30.83108 | -115.37105 | 35096 ft | 460 kts | 147° |
| 2026-05-06 20:17 | 30.78004 | -115.32608 | 35101 ft | 460 kts | 146° |
| 2026-05-06 20:18 | 30.73041 | -115.27997 | 35081 ft | 455 kts | 145° |
| 2026-05-06 20:18 | 30.68126 | -115.23368 | 35072 ft | 454 kts | 145° |
| 2026-05-06 20:19 | 30.63191 | -115.18785 | 35073 ft | 454 kts | 146° |
| 2026-05-06 20:19 | 30.58264 | -115.14270 | 35057 ft | 454 kts | 147° |
| 2026-05-06 20:20 | 30.53288 | -115.09715 | 35072 ft | 456 kts | 147° |
| 2026-05-06 20:20 | 30.48306 | -115.05146 | 35071 ft | 457 kts | 147° |
| 2026-05-06 20:21 | 30.43328 | -115.00576 | 35065 ft | 456 kts | 147° |
| 2026-05-06 20:21 | 30.38357 | -114.96015 | 35080 ft | 455 kts | 148° |
| 2026-05-06 20:22 | 30.33403 | -114.91480 | 35065 ft | 453 kts | 149° |
| 2026-05-06 20:22 | 30.28449 | -114.86964 | 35069 ft | 453 kts | 149° |
| 2026-05-06 20:23 | 30.23504 | -114.82452 | 35069 ft | 453 kts | 148° |
| 2026-05-06 20:23 | 30.18558 | -114.77938 | 35067 ft | 453 kts | 149° |
| 2026-05-06 20:24 | 30.13615 | -114.73434 | 35041 ft | 453 kts | 150° |
| 2026-05-06 20:24 | 30.08659 | -114.68927 | 35046 ft | 454 kts | 150° |
| 2026-05-06 20:25 | 30.03698 | -114.64430 | 35050 ft | 453 kts | 150° |
| 2026-05-06 20:25 | 29.98733 | -114.59932 | 35056 ft | 454 kts | 150° |
| 2026-05-06 20:26 | 29.93755 | -114.55426 | 35022 ft | 455 kts | 150° |
| 2026-05-06 20:26 | 29.88774 | -114.50924 | 35030 ft | 455 kts | 151° |
| 2026-05-06 20:27 | 29.83817 | -114.46455 | 35040 ft | 456 kts | 151° |
| 2026-05-06 20:27 | 29.78813 | -114.41945 | 35046 ft | 457 kts | 151° |
| 2026-05-06 20:28 | 29.73803 | -114.37430 | 35048 ft | 457 kts | 152° |
| 2026-05-06 20:28 | 29.68806 | -114.32928 | 35035 ft | 455 kts | 153° |
| 2026-05-06 20:29 | 29.64623 | -114.29167 | 35047 ft | 456 kts | 154° |
| 2026-05-06 20:29 | 29.59628 | -114.24686 | 35065 ft | 455 kts | 153° |
| 2026-05-06 20:30 | 29.52140 | -114.17979 | 35060 ft | 455 kts | 153° |
| 2026-05-06 20:31 | 29.47151 | -114.13531 | 35026 ft | 454 kts | 154° |
| 2026-05-06 20:31 | 29.42175 | -114.09085 | 35037 ft | 453 kts | 154° |
| 2026-05-06 20:32 | 29.36391 | -114.03918 | 35047 ft | 453 kts | 154° |
| 2026-05-06 20:32 | 29.32259 | -114.00240 | 35058 ft | 452 kts | 154° |
| 2026-05-06 20:33 | 29.27295 | -113.95822 | 35065 ft | 451 kts | 154° |
| 2026-05-06 20:33 | 29.22345 | -113.91422 | 35027 ft | 449 kts | 154° |
| 2026-05-06 20:34 | 29.17393 | -113.87029 | 35039 ft | 450 kts | 154° |
| 2026-05-06 20:34 | 29.12441 | -113.82643 | 35042 ft | 450 kts | 154° |
| 2026-05-06 20:35 | 29.07488 | -113.78259 | 35032 ft | 450 kts | 155° |
| 2026-05-06 20:35 | 29.02530 | -113.73881 | 35018 ft | 450 kts | 154° |
| 2026-05-06 20:36 | 28.97573 | -113.69501 | 35040 ft | 451 kts | 154° |
| 2026-05-06 20:36 | 28.92614 | -113.65129 | 35049 ft | 450 kts | 154° |
| 2026-05-06 20:37 | 28.87627 | -113.60739 | 35052 ft | 450 kts | 154° |
| 2026-05-06 20:37 | 28.82669 | -113.56376 | 35063 ft | 451 kts | 155° |
| 2026-05-06 20:38 | 28.77718 | -113.52017 | 35002 ft | 449 kts | 154° |
| 2026-05-06 20:38 | 28.72765 | -113.47670 | 35019 ft | 450 kts | 154° |
| 2026-05-06 20:39 | 28.67800 | -113.43331 | 35015 ft | 449 kts | 155° |
| 2026-05-06 20:39 | 28.62839 | -113.39002 | 35016 ft | 450 kts | 155° |
| 2026-05-06 20:40 | 28.57879 | -113.34660 | 35021 ft | 450 kts | 155° |
| 2026-05-06 20:40 | 28.52915 | -113.30321 | 35041 ft | 450 kts | 155° |
| 2026-05-06 20:41 | 28.47954 | -113.25991 | 35042 ft | 449 kts | 154° |
| 2026-05-06 20:41 | 28.42998 | -113.21672 | 35036 ft | 449 kts | 155° |
| 2026-05-06 20:42 | 28.38038 | -113.17358 | 35019 ft | 449 kts | 155° |
| 2026-05-06 20:42 | 28.33088 | -113.13056 | 34998 ft | 450 kts | 155° |
| 2026-05-06 20:43 | 28.28126 | -113.08750 | 35011 ft | 449 kts | 155° |
| 2026-05-06 20:43 | 28.23163 | -113.04448 | 35023 ft | 448 kts | 155° |
| 2026-05-06 20:44 | 28.18203 | -113.00164 | 35028 ft | 448 kts | 154° |
| 2026-05-06 20:44 | 28.13244 | -112.95873 | 35038 ft | 449 kts | 155° |
| 2026-05-06 20:45 | 28.08284 | -112.91579 | 35013 ft | 449 kts | 155° |
| 2026-05-06 20:45 | 28.03355 | -112.87324 | 35024 ft | 449 kts | 155° |
| 2026-05-06 20:46 | 27.98390 | -112.83042 | 35029 ft | 449 kts | 155° |
| 2026-05-06 20:46 | 27.93419 | -112.78764 | 35034 ft | 449 kts | 155° |
| 2026-05-06 20:47 | 27.88452 | -112.74501 | 35032 ft | 448 kts | 155° |
| 2026-05-06 20:47 | 27.83492 | -112.70245 | 34997 ft | 447 kts | 155° |
| 2026-05-06 20:48 | 27.78538 | -112.65983 | 35013 ft | 448 kts | 155° |
| 2026-05-06 20:48 | 27.73578 | -112.61735 | 35013 ft | 447 kts | 155° |
| 2026-05-06 20:49 | 27.68614 | -112.57498 | 35018 ft | 447 kts | 155° |
| 2026-05-06 20:49 | 27.63654 | -112.53258 | 35021 ft | 447 kts | 154° |
| 2026-05-06 20:50 | 27.58693 | -112.49014 | 34993 ft | 447 kts | 154° |
| 2026-05-06 20:50 | 27.53729 | -112.44783 | 35004 ft | 447 kts | 155° |
| 2026-05-06 20:51 | 27.48777 | -112.40556 | 35009 ft | 447 kts | 155° |
| 2026-05-06 20:51 | 27.43815 | -112.36339 | 35019 ft | 447 kts | 155° |
| 2026-05-06 20:52 | 27.38859 | -112.32135 | 35023 ft | 446 kts | 155° |
| 2026-05-06 20:52 | 27.33934 | -112.27963 | 34987 ft | 446 kts | 155° |
| 2026-05-06 20:53 | 27.28801 | -112.24230 | 34992 ft | 438 kts | 160° |
| 2026-05-06 20:53 | 27.23599 | -112.20651 | 35001 ft | 438 kts | 160° |
| 2026-05-06 20:54 | 27.18409 | -112.17055 | 35002 ft | 438 kts | 160° |
| 2026-05-06 20:54 | 27.13215 | -112.13460 | 34939 ft | 438 kts | 159° |
| 2026-05-06 20:55 | 27.08075 | -112.09917 | 35018 ft | 439 kts | 160° |
| 2026-05-06 20:55 | 27.02878 | -112.06343 | 35019 ft | 438 kts | 160° |
| 2026-05-06 20:56 | 26.97691 | -112.02773 | 35017 ft | 437 kts | 160° |
| 2026-05-06 20:56 | 26.92509 | -111.99214 | 35016 ft | 436 kts | 160° |
| 2026-05-06 20:57 | 26.87329 | -111.95670 | 34950 ft | 435 kts | 159° |
| 2026-05-06 20:57 | 26.82165 | -111.92142 | 34964 ft | 434 kts | 159° |
| 2026-05-06 20:58 | 26.77010 | -111.88607 | 34972 ft | 435 kts | 159° |
| 2026-05-06 20:58 | 26.71857 | -111.85066 | 34980 ft | 434 kts | 159° |
| 2026-05-06 20:59 | 26.66701 | -111.81535 | 34983 ft | 434 kts | 159° |
| 2026-05-06 20:59 | 26.61546 | -111.78015 | 34940 ft | 434 kts | 159° |
| 2026-05-06 21:00 | 26.56388 | -111.74498 | 34965 ft | 434 kts | 159° |
| 2026-05-06 21:00 | 26.51233 | -111.70984 | 34968 ft | 434 kts | 159° |
| 2026-05-06 21:01 | 26.46075 | -111.67470 | 34983 ft | 434 kts | 159° |
| 2026-05-06 21:01 | 26.40917 | -111.63961 | 34986 ft | 434 kts | 159° |
| 2026-05-06 21:02 | 26.35735 | -111.60446 | 34947 ft | 435 kts | 159° |
| 2026-05-06 21:02 | 26.30581 | -111.56958 | 34988 ft | 438 kts | 159° |
| 2026-05-06 21:03 | 26.25376 | -111.53427 | 34994 ft | 438 kts | 159° |
| 2026-05-06 21:03 | 26.20174 | -111.49896 | 35000 ft | 438 kts | 159° |
| 2026-05-06 21:04 | 26.14975 | -111.46367 | 35001 ft | 437 kts | 159° |
| 2026-05-06 21:04 | 26.09776 | -111.42855 | 34998 ft | 437 kts | 159° |
| 2026-05-06 21:05 | 26.04574 | -111.39354 | 34996 ft | 437 kts | 159° |
| 2026-05-06 21:05 | 25.99382 | -111.35821 | 35045 ft | 441 kts | 156° |
| 2026-05-06 21:05 | 25.96961 | -111.33654 | 35044 ft | 455 kts | 146° |
| 2026-05-06 21:06 | 25.94760 | -111.31093 | 35042 ft | 459 kts | 143° |
| 2026-05-06 21:06 | 25.90392 | -111.25932 | 35034 ft | 459 kts | 143° |
| 2026-05-06 21:07 | 25.86018 | -111.20777 | 34993 ft | 459 kts | 144° |
| 2026-05-06 21:07 | 25.81631 | -111.15633 | 34986 ft | 459 kts | 144° |
| 2026-05-06 21:08 | 25.77238 | -111.10493 | 34996 ft | 459 kts | 144° |
| 2026-05-06 21:08 | 25.72851 | -111.05356 | 34992 ft | 458 kts | 144° |
| 2026-05-06 21:09 | 25.68466 | -111.00221 | 34996 ft | 458 kts | 144° |
| 2026-05-06 21:09 | 25.64083 | -110.95099 | 34996 ft | 458 kts | 144° |
| 2026-05-06 21:10 | 25.59698 | -110.89994 | 34961 ft | 457 kts | 144° |
| 2026-05-06 21:10 | 25.55304 | -110.84882 | 34971 ft | 458 kts | 144° |
| 2026-05-06 21:11 | 25.50912 | -110.79773 | 35007 ft | 458 kts | 145° |
| 2026-05-06 21:11 | 25.47266 | -110.75528 | 35002 ft | 458 kts | 144° |
| 2026-05-06 21:12 | 25.42886 | -110.70422 | 34996 ft | 457 kts | 144° |
| 2026-05-06 21:12 | 25.38498 | -110.65327 | 34994 ft | 457 kts | 145° |
| 2026-05-06 21:13 | 25.33361 | -110.59376 | 34955 ft | 457 kts | 144° |
| 2026-05-06 21:13 | 25.29705 | -110.55147 | 34961 ft | 458 kts | 144° |
| 2026-05-06 21:14 | 25.25305 | -110.50059 | 34965 ft | 458 kts | 144° |
| 2026-05-06 21:14 | 25.20904 | -110.44971 | 34965 ft | 458 kts | 145° |
| 2026-05-06 21:15 | 25.16499 | -110.39893 | 34987 ft | 458 kts | 145° |
| 2026-05-06 21:15 | 25.12087 | -110.34816 | 34978 ft | 458 kts | 145° |
| 2026-05-06 21:16 | 25.07672 | -110.29735 | 34958 ft | 459 kts | 144° |
| 2026-05-06 21:16 | 25.03249 | -110.24644 | 34969 ft | 459 kts | 144° |
| 2026-05-06 21:17 | 24.98828 | -110.19555 | 34978 ft | 459 kts | 144° |
| 2026-05-06 21:17 | 24.94398 | -110.14475 | 34981 ft | 459 kts | 145° |
| 2026-05-06 21:18 | 24.89967 | -110.09407 | 34972 ft | 459 kts | 144° |
| 2026-05-06 21:18 | 24.87752 | -110.06869 | 34828 ft | 460 kts | 144° |
| 2026-05-06 21:18 | 24.85538 | -110.04331 | 34574 ft | 459 kts | 144° |
| 2026-05-06 21:18 | 24.83322 | -110.01795 | 34347 ft | 460 kts | 144° |
| 2026-05-06 21:19 | 24.81102 | -109.99258 | 34123 ft | 460 kts | 144° |
| 2026-05-06 21:19 | 24.78879 | -109.96716 | 33889 ft | 461 kts | 144° |
| 2026-05-06 21:19 | 24.76654 | -109.94174 | 33630 ft | 461 kts | 144° |
| 2026-05-06 21:19 | 24.74434 | -109.91638 | 33247 ft | 459 kts | 144° |
| 2026-05-06 21:20 | 24.72253 | -109.89149 | 32662 ft | 456 kts | 143° |
| 2026-05-06 21:20 | 24.70054 | -109.86640 | 32099 ft | 454 kts | 143° |
| 2026-05-06 21:20 | 24.67865 | -109.84145 | 31520 ft | 452 kts | 143° |
| 2026-05-06 21:20 | 24.65684 | -109.81664 | 30952 ft | 450 kts | 142° |
| 2026-05-06 21:21 | 24.63510 | -109.79192 | 30381 ft | 448 kts | 142° |
| 2026-05-06 21:21 | 24.61351 | -109.76734 | 29800 ft | 446 kts | 141° |
| 2026-05-06 21:21 | 24.59206 | -109.74287 | 29221 ft | 442 kts | 141° |
| 2026-05-06 21:21 | 24.57081 | -109.71865 | 28693 ft | 438 kts | 141° |
| 2026-05-06 21:22 | 24.54975 | -109.69469 | 28156 ft | 435 kts | 141° |
| 2026-05-06 21:22 | 24.52880 | -109.67090 | 27627 ft | 431 kts | 141° |
| 2026-05-06 21:22 | 24.50802 | -109.64736 | 27103 ft | 427 kts | 141° |
| 2026-05-06 21:22 | 24.48742 | -109.62403 | 26593 ft | 424 kts | 141° |
| 2026-05-06 21:23 | 24.46696 | -109.60087 | 26097 ft | 420 kts | 141° |
| 2026-05-06 21:23 | 24.44669 | -109.57788 | 25613 ft | 416 kts | 141° |
| 2026-05-06 21:23 | 24.42668 | -109.55512 | 25135 ft | 413 kts | 141° |
| 2026-05-06 21:23 | 24.40684 | -109.53257 | 24671 ft | 409 kts | 141° |
| 2026-05-06 21:24 | 24.38714 | -109.51025 | 24206 ft | 405 kts | 141° |
| 2026-05-06 21:24 | 24.36760 | -109.48817 | 23742 ft | 402 kts | 141° |
| 2026-05-06 21:24 | 24.34813 | -109.46637 | 23216 ft | 396 kts | 144° |
| 2026-05-06 21:24 | 24.32634 | -109.44919 | 22735 ft | 378 kts | 159° |
| 2026-05-06 21:25 | 24.30221 | -109.43941 | 22274 ft | 362 kts | 174° |
| 2026-05-06 21:25 | 24.27763 | -109.43690 | 21822 ft | 349 kts | 187° |
| 2026-05-06 21:25 | 24.25398 | -109.44086 | 21381 ft | 340 kts | 197° |
| 2026-05-06 21:25 | 24.23108 | -109.44681 | 20938 ft | 337 kts | 197° |
| 2026-05-06 21:26 | 24.20834 | -109.45265 | 20500 ft | 334 kts | 197° |
| 2026-05-06 21:26 | 24.18576 | -109.45841 | 20057 ft | 332 kts | 197° |
| 2026-05-06 21:26 | 24.16332 | -109.46413 | 19616 ft | 330 kts | 197° |
| 2026-05-06 21:26 | 24.14126 | -109.46975 | 19174 ft | 329 kts | 197° |
| 2026-05-06 21:27 | 24.11900 | -109.47542 | 18738 ft | 328 kts | 197° |
| 2026-05-06 21:27 | 24.09685 | -109.48105 | 18301 ft | 326 kts | 197° |
| 2026-05-06 21:27 | 24.07474 | -109.48666 | 17805 ft | 325 kts | 197° |
| 2026-05-06 21:27 | 24.05276 | -109.49226 | 17366 ft | 323 kts | 197° |
| 2026-05-06 21:28 | 24.03100 | -109.49783 | 16937 ft | 320 kts | 197° |
| 2026-05-06 21:28 | 24.00938 | -109.50337 | 16520 ft | 318 kts | 197° |
| 2026-05-06 21:28 | 23.98794 | -109.50883 | 16106 ft | 316 kts | 197° |
| 2026-05-06 21:28 | 23.96659 | -109.51426 | 15692 ft | 314 kts | 197° |
| 2026-05-06 21:29 | 23.94536 | -109.51965 | 15284 ft | 313 kts | 197° |
| 2026-05-06 21:29 | 23.92418 | -109.52502 | 14852 ft | 312 kts | 197° |
| 2026-05-06 21:29 | 23.90315 | -109.53081 | 14422 ft | 310 kts | 201° |
| 2026-05-06 21:29 | 23.88271 | -109.53841 | 13999 ft | 310 kts | 202° |
| 2026-05-06 21:30 | 23.86228 | -109.54600 | 13546 ft | 310 kts | 202° |
| 2026-05-06 21:30 | 23.84189 | -109.55356 | 13114 ft | 309 kts | 202° |
| 2026-05-06 21:30 | 23.82154 | -109.56107 | 12681 ft | 308 kts | 202° |
| 2026-05-06 21:30 | 23.80126 | -109.56854 | 12254 ft | 307 kts | 202° |
| 2026-05-06 21:31 | 23.78105 | -109.57598 | 11822 ft | 306 kts | 202° |
| 2026-05-06 21:31 | 23.76090 | -109.58341 | 11396 ft | 306 kts | 202° |
| 2026-05-06 21:31 | 23.74077 | -109.59086 | 10959 ft | 305 kts | 202° |
| 2026-05-06 21:31 | 23.72069 | -109.59828 | 10521 ft | 305 kts | 202° |
| 2026-05-06 21:32 | 23.70065 | -109.60570 | 10188 ft | 301 kts | 202° |
| 2026-05-06 21:32 | 23.66228 | -109.61983 | 9850 ft | 283 kts | 202° |
| 2026-05-06 21:32 | 23.64369 | -109.62666 | 9674 ft | 282 kts | 201° |
| 2026-05-06 21:33 | 23.62517 | -109.63348 | 9319 ft | 281 kts | 201° |
| 2026-05-06 21:33 | 23.60664 | -109.64031 | 8955 ft | 280 kts | 201° |
| 2026-05-06 21:33 | 23.58824 | -109.64709 | 8598 ft | 279 kts | 201° |
| 2026-05-06 21:33 | 23.56987 | -109.65386 | 8239 ft | 278 kts | 201° |
| 2026-05-06 21:34 | 23.55157 | -109.66059 | 7878 ft | 277 kts | 201° |
| 2026-05-06 21:34 | 23.53331 | -109.66730 | 7527 ft | 277 kts | 201° |
| 2026-05-06 21:34 | 23.51507 | -109.67399 | 7172 ft | 276 kts | 201° |
| 2026-05-06 21:34 | 23.49714 | -109.68056 | 6822 ft | 275 kts | 201° |
| 2026-05-06 21:35 | 23.47906 | -109.68719 | 6473 ft | 274 kts | 201° |
| 2026-05-06 21:35 | 23.46105 | -109.69380 | 6098 ft | 272 kts | 200° |
| 2026-05-06 21:35 | 23.44294 | -109.70046 | 5735 ft | 270 kts | 200° |
| 2026-05-06 21:35 | 23.42539 | -109.70691 | 5386 ft | 261 kts | 200° |
| 2026-05-06 21:36 | 23.40849 | -109.71310 | 5064 ft | 252 kts | 200° |
| 2026-05-06 21:36 | 23.39227 | -109.71903 | 4746 ft | 239 kts | 200° |
| 2026-05-06 21:36 | 23.37704 | -109.72461 | 4432 ft | 224 kts | 202° |
| 2026-05-06 21:36 | 23.36264 | -109.72989 | 4145 ft | 216 kts | 200° |
| 2026-05-06 21:37 | 23.34867 | -109.73501 | 3871 ft | 207 kts | 200° |
| 2026-05-06 21:37 | 23.33524 | -109.73972 | 3621 ft | 199 kts | 194° |
| 2026-05-06 21:37 | 23.32140 | -109.74012 | 3359 ft | 202 kts | 174° |
| 2026-05-06 21:37 | 23.30745 | -109.73844 | 3089 ft | 201 kts | 175° |
| 2026-05-06 21:38 | 23.29381 | -109.73687 | 2818 ft | 193 kts | 174° |
| 2026-05-06 21:38 | 23.28063 | -109.73537 | 2569 ft | 189 kts | 174° |
| 2026-05-06 21:38 | 23.26760 | -109.73389 | 2352 ft | 187 kts | 174° |
| 2026-05-06 21:38 | 23.25489 | -109.73245 | 2096 ft | 175 kts | 174° |
| 2026-05-06 21:39 | 23.24305 | -109.73109 | 1854 ft | 169 kts | 173° |
| 2026-05-06 21:39 | 23.23161 | -109.72979 | 1653 ft | 164 kts | 172° |
| 2026-05-06 21:39 | 23.22012 | -109.72849 | 1438 ft | 161 kts | 173° |
| 2026-05-06 21:39 | 23.20936 | -109.72719 | 1225 ft | 151 kts | 170° |
| 2026-05-06 21:40 | 23.19921 | -109.72604 | 1034 ft | 144 kts | 171° |
| 2026-05-06 21:40 | 23.18948 | -109.72500 | 869 ft | 141 kts | 172° |
| 2026-05-06 21:40 | 23.17976 | -109.72392 | 666 ft | 140 kts | 170° |
| 2026-05-06 21:40 | 23.17024 | -109.72285 | 525 ft | 137 kts | 172° |
| 2026-05-06 21:41 | 23.16090 | -109.72177 | 387 ft | 128 kts | 172° |
| 2026-05-06 21:41 | 23.15392 | -109.72096 | 361 ft | 60 kts | 174° |
| 2026-05-06 21:41 | 23.15144 | -109.72067 | 357 ft | 34 kts | 173° |
| 2026-05-06 21:41 | 23.14954 | -109.71982 | 345 ft | 19 kts | 144° |
| 2026-05-06 21:42 | 23.14846 | -109.71898 | 342 ft | 18 kts | 143° |
| 2026-05-06 21:42 | 23.14859 | -109.71833 | 350 ft | 10 kts | 8° |
| 2026-05-06 21:42 | 23.14919 | -109.71837 | 348 ft | 7 kts | 355° |
| 2026-05-06 21:42 | 23.14963 | -109.71842 | 354 ft | 9 kts | 353° |
| 2026-05-06 21:43 | 23.15054 | -109.71852 | 353 ft | 17 kts | 354° |
| 2026-05-06 21:43 | 23.15165 | -109.71865 | 358 ft | 14 kts | 354° |
| 2026-05-06 21:43 | 23.15252 | -109.71876 | 362 ft | 11 kts | 354° |
| 2026-05-06 21:43 | 23.15316 | -109.71883 | 360 ft | 8 kts | 354° |
| 2026-05-06 21:44 | 23.15388 | -109.71891 | 357 ft | 14 kts | 354° |
| 2026-05-06 21:44 | 23.15447 | -109.71894 | 364 ft | 0 kts | 4° |
| 2026-05-06 21:45 | 23.15448 | -109.71894 | 364 ft | 1 kts | 4° |
| 2026-05-06 21:46 | 23.15477 | -109.71869 | 361 ft | 8 kts | 63° |
| 2026-05-06 21:46 | 23.15508 | -109.71831 | 362 ft | 6 kts | 27° |
| 2026-05-06 21:46 | 23.15565 | -109.71828 | 363 ft | 12 kts | 355° |
| 2026-05-06 21:46 | 23.15630 | -109.71824 | 367 ft | 6 kts | 42° |
| 2026-05-06 21:47 | 23.15639 | -109.71791 | 368 ft | 3 kts | 84° |
| 2026-05-06 21:47 | 23.15640 | -109.71779 | 367 ft | 0 kts | 84° |
| 2026-05-06 21:47 | 23.15641 | -109.71772 | 369 ft | 3 kts | 84° |
| 2026-05-06 21:47 | 23.15641 | -109.71768 | 369 ft | 0 kts | 84° |